Weston, Colorado
Current Conditions -  °F | °C
As of 10:53 PM on Friday 28 Nov 2014 (Local Time) from KRTN Reporting Station
Clear Clear  
Wind Chill: 40°   Ceiling: Unl
Heat Index: 45°   Visibility: 10mi
Dew Point:   Wind: 9mph
Humidity: 21%   Direction: 270°W
Pressure: 29.94"   Gusts: NA
Location:  37.14°N, 104.85°W
Report Text: KRTN 290553Z AUTO 27008KT 10SM CLR 07/M14 A2994 RMK AO2 SLP094 T00721139 10122 20056 58006
Loading
Personal Weather Stations






























Interactive Weather Map New forecast layout! Learn more

10-Day Weather Forecast

Advertisements
Track Severe Weather on mobile